Time;durP1;ratioP1;P1;durP2;ratioP2;P2;SDS_P1;SDS_P2;PMS_P1;PMS_P2;Temp;Humidity;BMP_temperature;BMP_pressure;BME280_temperature;BME280_humidity;BME280_pressure;Samples;Min_cycle;Max_cycle;Signal;HPM_P1;HPM_P2
2021/01/13 00:02:19;;;;;;;3.00;1.17;;;10.10;99.90;;;;;;5052682;28;20223;-78
2021/01/13 00:04:46;;;;;;;1.83;1.27;;;10.10;99.90;;;;;;5059778;28;20234;-78
2021/01/13 00:07:14;;;;;;;3.20;1.10;;;10.10;99.90;;;;;;5052653;28;20282;-78
2021/01/13 00:09:40;;;;;;;2.10;1.10;;;10.10;99.90;;;;;;5052490;28;20231;-78
2021/01/13 00:12:07;;;;;;;3.10;1.30;;;10.20;99.90;;;;;;5052110;28;20345;-78
2021/01/13 00:14:34;;;;;;;3.50;1.10;;;10.10;99.90;;;;;;5052614;28;20234;-78
2021/01/13 00:17:00;;;;;;;2.00;1.10;;;10.10;99.90;;;;;;5053288;28;20718;-78
2021/01/13 00:19:27;;;;;;;2.13;1.20;;;10.10;99.90;;;;;;5052274;28;20688;-78
2021/01/13 00:21:55;;;;;;;4.33;1.23;;;10.10;99.90;;;;;;5051333;28;20263;-78
2021/01/13 00:24:22;;;;;;;2.27;1.20;;;10.10;99.90;;;;;;5052300;28;20329;-78
2021/01/13 00:26:51;;;;;;;5.00;1.13;;;10.10;99.90;;;;;;5067050;28;20241;-79
2021/01/13 00:29:18;;;;;;;4.03;1.20;;;10.10;99.90;;;;;;5071213;28;20218;-78
2021/01/13 00:31:44;;;;;;;3.73;1.10;;;10.10;99.90;;;;;;5052175;28;20252;-78
2021/01/13 00:34:11;;;;;;;4.53;1.10;;;10.10;99.90;;;;;;5064517;28;20792;-78
2021/01/13 00:36:38;;;;;;;3.23;1.30;;;10.10;99.90;;;;;;5072035;28;20234;-78
2021/01/13 00:39:06;;;;;;;3.10;1.20;;;10.10;99.90;;;;;;5068572;28;20737;-78
2021/01/13 00:41:33;;;;;;;3.93;1.60;;;10.10;99.90;;;;;;5071842;28;20305;-78
2021/01/13 00:43:59;;;;;;;3.93;1.33;;;10.00;99.90;;;;;;5055598;28;20630;-78
2021/01/13 00:46:35;;;;;;;4.20;1.40;;;10.00;99.90;;;;;;5055834;28;20231;-78
2021/01/13 00:49:02;;;;;;;5.83;1.50;;;10.10;99.90;;;;;;5062106;28;20268;-78
2021/01/13 00:51:33;;;;;;;4.40;1.30;;;10.10;99.90;;;;;;5061891;28;20309;-78
2021/01/13 00:53:59;;;;;;;3.07;1.40;;;10.10;99.90;;;;;;5049980;28;20246;-78
2021/01/13 00:56:27;;;;;;;4.73;1.33;;;10.10;99.90;;;;;;5055632;28;20235;-78
2021/01/13 00:58:55;;;;;;;2.03;1.37;;;10.10;99.90;;;;;;5056282;28;20285;-79
2021/01/13 01:01:25;;;;;;;2.87;1.20;;;10.10;99.90;;;;;;5066036;28;20230;-78
2021/01/13 01:03:52;;;;;;;2.43;1.10;;;10.10;99.90;;;;;;5058607;28;20328;-78
2021/01/13 01:06:19;;;;;;;3.60;1.23;;;10.10;99.90;;;;;;5058510;28;20227;-78
2021/01/13 01:08:45;;;;;;;3.63;1.00;;;10.10;99.90;;;;;;5063078;28;20199;-78
2021/01/13 01:11:13;;;;;;;3.53;1.10;;;10.10;99.90;;;;;;5055233;28;20301;-78
2021/01/13 01:13:40;;;;;;;2.70;1.00;;;10.10;99.90;;;;;;5055181;28;20234;-78
2021/01/13 01:16:08;;;;;;;3.60;1.23;;;10.10;99.90;;;;;;5055861;28;20238;-79
2021/01/13 01:18:34;;;;;;;3.50;1.17;;;10.00;99.90;;;;;;5061374;28;20202;-78
2021/01/13 01:21:01;;;;;;;1.77;0.93;;;10.10;99.90;;;;;;5054873;28;20263;-78
2021/01/13 01:23:27;;;;;;;6.70;1.10;;;10.10;99.90;;;;;;5054917;28;20259;-78
2021/01/13 01:25:53;;;;;;;2.70;1.20;;;10.00;99.90;;;;;;5055481;28;20204;-78
2021/01/13 01:28:20;;;;;;;3.07;0.87;;;10.10;99.90;;;;;;5055509;28;20310;-78
2021/01/13 01:30:47;;;;;;;4.37;0.80;;;10.10;99.90;;;;;;5055288;28;20226;-78
2021/01/13 01:33:13;;;;;;;2.37;0.77;;;10.00;99.90;;;;;;5055351;28;20286;-78
2021/01/13 01:35:40;;;;;;;1.33;0.77;;;10.00;99.90;;;;;;5054659;28;20733;-78
2021/01/13 01:38:06;;;;;;;1.10;0.60;;;10.00;99.90;;;;;;5054885;28;20254;-78
2021/01/13 01:40:33;;;;;;;1.37;0.70;;;10.00;99.90;;;;;;5054835;28;20231;-78
2021/01/13 01:42:59;;;;;;;3.83;0.63;;;10.00;99.90;;;;;;5071549;28;20219;-78
2021/01/13 01:45:27;;;;;;;2.57;0.50;;;10.10;99.90;;;;;;5059701;28;20690;-78
2021/01/13 01:48:26;;;;;;;3.70;0.90;;;10.10;99.90;;;;;;5054840;28;20299;-78
2021/01/13 01:50:57;;;;;;;1.57;0.70;;;10.10;99.90;;;;;;5061717;28;20222;-78
2021/01/13 01:53:43;;;;;;;0.87;0.53;;;10.00;99.90;;;;;;5053989;28;20231;-78
2021/01/13 01:56:22;;;;;;;3.43;0.73;;;10.00;99.90;;;;;;5058922;28;20226;-78
2021/01/13 01:58:49;;;;;;;2.30;0.70;;;10.00;99.90;;;;;;5062684;28;20280;-78
2021/01/13 02:01:29;;;;;;;1.97;0.70;;;10.00;99.90;;;;;;5065273;28;20289;-78
2021/01/13 02:04:13;;;;;;;1.60;0.60;;;10.00;99.90;;;;;;5065285;28;20195;-78
2021/01/13 02:07:25;;;;;;;1.00;0.60;;;10.00;99.90;;;;;;5054489;28;20215;-78
2021/01/13 02:09:52;;;;;;;1.80;0.53;;;10.00;99.90;;;;;;5012594;28;20201;-78
2021/01/13 02:12:25;;;;;;;3.27;0.70;;;10.00;99.90;;;;;;5012843;28;20284;-78
2021/01/13 02:14:52;;;;;;;1.43;0.60;;;10.00;99.90;;;;;;5012654;28;20244;-78
2021/01/13 02:17:28;;;;;;;1.17;0.70;;;10.00;99.90;;;;;;5011966;28;20227;-78
2021/01/13 02:20:09;;;;;;;1.03;0.50;;;10.00;99.90;;;;;;5011901;28;20229;-78
2021/01/13 02:23:00;;;;;;;2.37;0.70;;;10.00;99.90;;;;;;5011155;28;20742;-78
2021/01/13 02:26:06;;;;;;;3.07;0.70;;;10.00;99.90;;;;;;5007440;28;20736;-78
2021/01/13 02:28:42;;;;;;;1.03;0.50;;;10.00;99.90;;;;;;5011774;28;20208;-78
2021/01/13 02:31:31;;;;;;;1.00;0.67;;;10.00;99.90;;;;;;5012378;28;20228;-78
2021/01/13 02:34:07;;;;;;;3.70;1.00;;;10.00;99.90;;;;;;5011799;28;20400;-79
2021/01/13 02:37:04;;;;;;;2.03;0.50;;;10.00;99.90;;;;;;5011577;28;20193;-77
2021/01/13 02:39:34;;;;;;;2.77;0.67;;;10.10;99.90;;;;;;5011861;28;20216;-77
2021/01/13 02:42:01;;;;;;;1.90;0.60;;;10.10;99.90;;;;;;5011476;28;20316;-78
2021/01/13 02:44:30;;;;;;;2.20;0.70;;;10.00;99.90;;;;;;5011982;28;20241;-78
2021/01/13 02:47:07;;;;;;;2.47;0.70;;;10.00;99.90;;;;;;5040324;28;20227;-78
2021/01/13 02:49:39;;;;;;;1.90;0.60;;;10.00;99.90;;;;;;5053725;28;20263;-78
2021/01/13 02:52:20;;;;;;;2.83;0.80;;;10.00;99.90;;;;;;5053669;28;20205;-78
2021/01/13 02:54:55;;;;;;;2.03;0.67;;;10.00;99.90;;;;;;5052840;28;20233;-78
2021/01/13 02:57:26;;;;;;;1.57;0.60;;;10.00;99.90;;;;;;5053587;28;20717;-78
2021/01/13 02:59:57;;;;;;;2.70;0.67;;;10.00;99.90;;;;;;5054013;28;20200;-78
2021/01/13 03:02:38;;;;;;;1.07;0.70;;;10.00;99.90;;;;;;5053719;28;20259;-78
2021/01/13 03:05:06;;;;;;;1.50;0.80;;;10.00;99.90;;;;;;5051076;28;20249;-78
2021/01/13 03:07:36;;;;;;;1.47;0.90;;;10.00;99.90;;;;;;5062909;28;20230;-78
2021/01/13 03:10:10;;;;;;;2.43;0.80;;;9.90;99.90;;;;;;5073314;28;20253;-78
2021/01/13 03:12:40;;;;;;;2.80;0.80;;;10.00;99.90;;;;;;5061983;28;20276;-78
2021/01/13 03:15:09;;;;;;;1.80;1.00;;;9.90;99.90;;;;;;5059607;28;20231;-78
2021/01/13 03:18:05;;;;;;;2.67;1.07;;;9.90;99.90;;;;;;5052716;28;20206;-78
2021/01/13 03:20:39;;;;;;;2.23;0.90;;;9.90;99.90;;;;;;5051545;28;20303;-78
2021/01/13 03:23:14;;;;;;;3.20;0.90;;;9.90;99.90;;;;;;5053000;28;20265;-78
2021/01/13 03:25:50;;;;;;;3.00;1.00;;;9.90;99.90;;;;;;5052969;28;20431;-78
2021/01/13 03:28:18;;;;;;;3.13;0.93;;;9.90;99.90;;;;;;5052395;28;20264;-77
2021/01/13 03:30:50;;;;;;;2.50;1.10;;;9.90;99.90;;;;;;5053006;28;20302;-78
2021/01/13 03:33:50;;;;;;;2.80;1.03;;;9.90;99.90;;;;;;5054008;28;20614;-78
2021/01/13 03:36:28;;;;;;;4.43;1.33;;;10.00;99.90;;;;;;5052643;28;20203;-78
2021/01/13 03:39:04;;;;;;;2.43;1.07;;;9.90;99.90;;;;;;5062604;28;20631;-78
2021/01/13 03:41:54;;;;;;;3.63;1.30;;;9.90;99.90;;;;;;5072187;28;20643;-78
2021/01/13 03:44:26;;;;;;;3.63;0.93;;;9.90;99.90;;;;;;5033117;28;20227;-78
2021/01/13 03:46:55;;;;;;;4.13;1.20;;;9.90;99.90;;;;;;5031891;28;20274;-78
2021/01/13 03:49:32;;;;;;;3.63;1.10;;;9.90;99.90;;;;;;5051802;28;20238;-78
2021/01/13 03:52:05;;;;;;;4.57;1.20;;;9.90;99.90;;;;;;5057875;28;20225;-77
2021/01/13 03:54:36;;;;;;;3.40;1.57;;;9.90;99.90;;;;;;5059801;28;20290;-78
2021/01/13 03:57:05;;;;;;;5.27;1.37;;;9.90;99.90;;;;;;5052409;28;20239;-78
2021/01/13 03:59:44;;;;;;;3.00;1.30;;;9.90;99.90;;;;;;5052345;28;20680;-78
2021/01/13 04:02:17;;;;;;;4.53;1.40;;;9.90;99.90;;;;;;5052326;28;20263;-78
2021/01/13 04:05:12;;;;;;;5.07;1.50;;;9.90;99.90;;;;;;5061386;28;20616;-78
2021/01/13 04:07:39;;;;;;;2.67;1.30;;;9.90;99.90;;;;;;5050050;28;20258;-78
2021/01/13 04:10:11;;;;;;;4.63;1.00;;;9.80;99.90;;;;;;5052381;28;20207;-78
2021/01/13 04:12:55;;;;;;;3.10;1.20;;;9.80;99.90;;;;;;5052638;28;20679;-78
2021/01/13 04:15:25;;;;;;;2.10;1.10;;;9.80;99.90;;;;;;5052046;28;20241;-78
2021/01/13 04:17:53;;;;;;;2.57;1.20;;;9.90;99.90;;;;;;5060555;28;20289;-78
2021/01/13 04:20:21;;;;;;;1.90;1.03;;;9.90;99.90;;;;;;5052056;28;20258;-78
2021/01/13 04:22:49;;;;;;;3.07;1.30;;;9.80;99.90;;;;;;5052786;28;20233;-78
2021/01/13 04:25:16;;;;;;;1.77;1.23;;;9.80;99.90;;;;;;5052186;28;20283;-78
2021/01/13 04:27:43;;;;;;;1.70;1.40;;;9.80;99.90;;;;;;5052634;28;20296;-78
2021/01/13 04:30:11;;;;;;;2.67;1.43;;;9.80;99.90;;;;;;5051669;28;20231;-78
2021/01/13 04:32:38;;;;;;;3.03;1.43;;;9.80;99.90;;;;;;5062294;28;20227;-77
2021/01/13 04:35:06;;;;;;;3.63;1.60;;;9.80;99.90;;;;;;5071013;28;20238;-78
2021/01/13 04:37:35;;;;;;;2.63;1.23;;;9.80;99.90;;;;;;5071973;28;20286;-78
2021/01/13 04:40:24;;;;;;;4.67;1.40;;;9.80;99.90;;;;;;5072050;28;20701;-78
2021/01/13 04:43:01;;;;;;;2.33;1.40;;;9.80;99.90;;;;;;5068266;28;20258;-78
2021/01/13 04:45:37;;;;;;;3.73;1.80;;;9.80;99.90;;;;;;5051853;28;20237;-78
2021/01/13 04:48:05;;;;;;;2.43;1.50;;;9.80;99.90;;;;;;5051722;28;20203;-78
2021/01/13 04:50:37;;;;;;;2.97;1.67;;;9.80;99.90;;;;;;5051916;28;20234;-78
2021/01/13 04:53:11;;;;;;;2.00;1.80;;;9.80;99.90;;;;;;5051268;28;20739;-78
2021/01/13 04:55:46;;;;;;;3.93;1.90;;;9.80;99.90;;;;;;5051496;28;20234;-78
2021/01/13 04:59:05;;;;;;;2.13;1.70;;;9.80;99.90;;;;;;5060263;28;20238;-78
2021/01/13 05:02:06;;;;;;;2.77;2.13;;;9.80;99.90;;;;;;5061787;28;20663;-78
2021/01/13 05:04:56;;;;;;;4.93;3.23;;;9.80;99.90;;;;;;5070503;28;20244;-78
2021/01/13 05:07:30;;;;;;;3.40;2.80;;;9.80;99.90;;;;;;5071649;28;20748;-78
2021/01/13 05:10:00;;;;;;;3.43;2.90;;;9.80;99.90;;;;;;5071409;28;20207;-78
2021/01/13 05:12:39;;;;;;;2.87;2.50;;;9.70;99.90;;;;;;5071537;28;20608;-78
2021/01/13 05:15:07;;;;;;;2.53;2.30;;;9.70;99.90;;;;;;5072237;28;20230;-79
2021/01/13 05:17:35;;;;;;;2.80;2.27;;;9.70;99.90;;;;;;5071757;28;20198;-78
2021/01/13 05:20:22;;;;;;;2.80;2.43;;;9.70;99.90;;;;;;5069977;28;20627;-78
2021/01/13 05:22:52;;;;;;;3.50;2.80;;;9.70;99.90;;;;;;5071885;28;20226;-78
2021/01/13 05:25:41;;;;;;;3.37;2.80;;;9.70;99.90;;;;;;5067962;28;20203;-79
2021/01/13 05:28:10;;;;;;;2.60;2.37;;;9.70;99.90;;;;;;5071920;28;20284;-78
2021/01/13 05:30:39;;;;;;;2.80;2.50;;;9.70;99.90;;;;;;5060547;28;20242;-78
2021/01/13 05:33:11;;;;;;;2.97;2.67;;;9.70;99.90;;;;;;5055374;28;20230;-79
2021/01/13 05:35:40;;;;;;;2.60;2.40;;;9.70;99.90;;;;;;5055307;28;20250;-79
2021/01/13 05:38:13;;;;;;;3.03;2.33;;;9.70;99.90;;;;;;5055052;28;20242;-78
2021/01/13 05:40:41;;;;;;;2.50;2.00;;;9.70;99.90;;;;;;5054768;28;20236;-78
2021/01/13 05:43:08;;;;;;;2.17;1.97;;;9.70;99.90;;;;;;5054835;28;20231;-78
2021/01/13 05:45:38;;;;;;;2.10;1.90;;;9.70;99.90;;;;;;5054655;28;20678;-78
2021/01/13 05:48:16;;;;;;;2.00;1.70;;;9.70;99.90;;;;;;5055014;28;20210;-78
2021/01/13 05:50:43;;;;;;;1.60;1.47;;;9.70;99.90;;;;;;5054762;28;20233;-78
2021/01/13 05:53:11;;;;;;;1.97;1.60;;;9.70;99.90;;;;;;5054679;28;20280;-78
2021/01/13 05:55:46;;;;;;;2.77;1.53;;;9.70;99.90;;;;;;5053760;28;20238;-78
2021/01/13 05:58:13;;;;;;;2.80;1.77;;;9.70;99.90;;;;;;5055067;28;20210;-78
2021/01/13 06:00:40;;;;;;;3.00;1.77;;;9.70;99.90;;;;;;5059567;28;20285;-78
2021/01/13 06:03:10;;;;;;;2.30;2.00;;;9.70;99.90;;;;;;5054712;28;20735;-78
2021/01/13 06:05:49;;;;;;;3.43;2.00;;;9.70;99.90;;;;;;5054082;28;20693;-78
2021/01/13 06:08:17;;;;;;;4.00;1.87;;;9.70;99.90;;;;;;5053779;28;20197;-77
2021/01/13 06:10:45;;;;;;;4.00;2.17;;;9.70;99.90;;;;;;5054385;28;20210;-78
2021/01/13 06:13:18;;;;;;;2.73;2.07;;;9.70;99.90;;;;;;5054682;28;20203;-77
2021/01/13 06:15:45;;;;;;;3.27;2.47;;;9.70;99.90;;;;;;5054145;28;20558;-77
2021/01/13 06:18:21;;;;;;;3.07;2.47;;;9.70;99.90;;;;;;5054640;28;20599;-77
2021/01/13 06:20:47;;;;;;;5.53;2.67;;;9.70;99.90;;;;;;5052939;28;20266;-77
2021/01/13 06:23:17;;;;;;;4.63;2.37;;;9.70;99.90;;;;;;5086293;28;20722;-78
2021/01/13 06:25:45;;;;;;;3.60;2.30;;;9.60;99.90;;;;;;5053592;28;20200;-77
2021/01/13 06:28:27;;;;;;;2.60;2.40;;;9.60;99.90;;;;;;5033977;28;20671;-78
2021/01/13 06:31:08;;;;;;;2.60;2.33;;;9.70;99.90;;;;;;5045069;28;20223;-76
2021/01/13 06:33:39;;;;;;;3.77;2.37;;;9.60;99.90;;;;;;5048071;28;20300;-77
2021/01/13 06:36:27;;;;;;;3.20;2.30;;;9.60;99.90;;;;;;5060463;28;20257;-78
2021/01/13 06:38:56;;;;;;;2.57;2.07;;;9.60;99.90;;;;;;5052268;28;20325;-79
2021/01/13 06:41:23;;;;;;;2.53;2.00;;;9.60;99.90;;;;;;5060760;28;20234;-76
2021/01/13 06:44:01;;;;;;;3.10;2.40;;;9.60;99.90;;;;;;5053465;28;20258;-77
2021/01/13 06:46:28;;;;;;;4.87;2.77;;;9.60;99.90;;;;;;5052401;28;20253;-77
2021/01/13 06:48:56;;;;;;;3.53;2.60;;;9.70;99.90;;;;;;5051656;28;20200;-77
2021/01/13 06:51:24;;;;;;;5.20;2.87;;;9.70;99.90;;;;;;5052046;28;20227;-77
2021/01/13 06:53:51;;;;;;;4.17;3.10;;;9.60;99.90;;;;;;5053985;28;20574;-77
2021/01/13 06:56:21;;;;;;;4.13;3.03;;;9.60;99.90;;;;;;5058409;28;20252;-77
2021/01/13 06:59:01;;;;;;;2.63;2.30;;;9.60;99.90;;;;;;5053738;28;20291;-77
2021/01/13 07:01:27;;;;;;;3.10;2.70;;;9.60;99.90;;;;;;5067122;28;20627;-77
2021/01/13 07:04:01;;;;;;;5.20;3.13;;;9.60;99.90;;;;;;5061012;28;20307;-77
2021/01/13 07:06:28;;;;;;;3.70;2.20;;;9.60;99.90;;;;;;5053219;28;20642;-77
2021/01/13 07:08:54;;;;;;;1.73;1.43;;;9.60;99.90;;;;;;5052805;28;20231;-76
2021/01/13 07:11:22;;;;;;;1.67;1.30;;;9.60;99.90;;;;;;5053411;28;20283;-76
2021/01/13 07:13:51;;;;;;;4.23;1.23;;;9.60;99.90;;;;;;5052730;28;20242;-76
2021/01/13 07:16:23;;;;;;;2.67;1.13;;;9.60;99.90;;;;;;5062847;28;20230;-77
2021/01/13 07:18:49;;;;;;;2.73;1.67;;;9.60;99.90;;;;;;5036430;28;20626;-77
2021/01/13 07:21:16;;;;;;;3.37;2.20;;;9.60;99.90;;;;;;5056477;28;20289;-76
2021/01/13 07:23:44;;;;;;;5.60;2.57;;;9.60;99.90;;;;;;5055242;28;20264;-76
2021/01/13 07:26:12;;;;;;;5.40;2.20;;;9.60;99.90;;;;;;5052391;28;20659;-76
2021/01/13 07:28:39;;;;;;;3.63;2.10;;;9.60;99.90;;;;;;5058571;28;20203;-76
2021/01/13 07:31:07;;;;;;;3.97;1.93;;;9.50;99.90;;;;;;5052793;28;20241;-76
2021/01/13 07:33:36;;;;;;;5.00;1.93;;;9.50;99.90;;;;;;5052052;28;20231;-77
2021/01/13 07:36:04;;;;;;;4.07;1.87;;;9.50;99.90;;;;;;5052583;28;20223;-76
2021/01/13 07:38:31;;;;;;;2.00;1.70;;;9.50;99.90;;;;;;5051915;28;20278;-76
2021/01/13 07:41:03;;;;;;;3.43;1.80;;;9.50;99.90;;;;;;5052356;28;20196;-76
2021/01/13 07:44:06;;;;;;;4.67;1.87;;;9.50;99.90;;;;;;5051755;28;20677;-76
2021/01/13 07:46:35;;;;;;;4.20;2.00;;;9.50;99.90;;;;;;5051149;28;20245;-77
2021/01/13 07:49:19;;;;;;;4.60;2.03;;;9.50;99.90;;;;;;5051335;28;20250;-76
2021/01/13 07:51:51;;;;;;;3.60;2.10;;;9.60;99.90;;;;;;5049836;28;20298;-76
2021/01/13 07:54:31;;;;;;;4.63;1.90;;;9.50;99.90;;;;;;5047870;28;20188;-78
2021/01/13 07:56:59;;;;;;;3.50;2.10;;;9.60;99.90;;;;;;5051441;28;20383;-78
2021/01/13 07:59:44;;;;;;;4.60;2.53;;;9.50;99.90;;;;;;5054273;28;20231;-78
2021/01/13 08:03:00;;;;;;;4.87;2.20;;;9.50;99.90;;;;;;5051668;28;20251;-78
2021/01/13 08:06:22;;;;;;;4.03;2.37;;;9.50;99.90;;;;;;5034724;28;20263;-78
2021/01/13 08:09:09;;;;;;;4.13;2.43;;;9.50;99.90;;;;;;5039849;28;20242;-79
2021/01/13 08:12:35;;;;;;;3.57;2.40;;;9.50;99.90;;;;;;5038928;28;20278;-78
2021/01/13 08:15:47;;;;;;;4.43;2.30;;;9.50;99.90;;;;;;5051453;28;20200;-78
2021/01/13 08:18:50;;;;;;;3.93;2.40;;;9.50;99.90;;;;;;5049504;28;20238;-79
2021/01/13 08:21:24;;;;;;;6.13;2.43;;;9.50;99.90;;;;;;5055022;28;20252;-79
2021/01/13 08:23:55;;;;;;;3.67;2.40;;;9.60;99.90;;;;;;5050904;28;20223;-79
2021/01/13 08:26:23;;;;;;;4.73;2.47;;;9.60;99.90;;;;;;5056234;28;20199;-78
2021/01/13 08:28:52;;;;;;;3.73;2.40;;;9.60;99.90;;;;;;5051474;28;20633;-78
2021/01/13 08:31:21;;;;;;;4.50;2.40;;;9.50;99.90;;;;;;5051498;28;20226;-78
2021/01/13 08:33:50;;;;;;;4.93;2.80;;;9.50;99.90;;;;;;5051488;28;20264;-78
2021/01/13 08:36:19;;;;;;;4.77;3.20;;;9.60;99.90;;;;;;5041998;28;20223;-78
2021/01/13 08:39:05;;;;;;;3.80;3.13;;;9.50;99.90;;;;;;5051315;28;20298;-78
2021/01/13 08:41:32;;;;;;;7.17;3.00;;;9.50;99.90;;;;;;5053742;28;20194;-78
2021/01/13 08:44:05;;;;;;;4.83;2.87;;;9.50;99.90;;;;;;5051197;28;20302;-78
2021/01/13 08:46:43;;;;;;;6.00;2.70;;;9.50;99.90;;;;;;5060516;28;20229;-78
2021/01/13 08:49:11;;;;;;;5.87;3.20;;;9.50;99.90;;;;;;5051083;28;20234;-79
2021/01/13 08:51:39;;;;;;;6.20;3.47;;;9.60;99.90;;;;;;5050625;28;20279;-78
2021/01/13 08:54:19;;;;;;;4.87;2.97;;;9.60;99.90;;;;;;5056668;28;20609;-80
2021/01/13 08:56:56;;;;;;;8.33;3.80;;;9.60;99.90;;;;;;5047685;28;20298;-79
2021/01/13 08:59:33;;;;;;;9.33;4.47;;;9.60;99.90;;;;;;5065452;28;20203;-79
2021/01/13 09:02:05;;;;;;;8.97;3.93;;;9.50;99.90;;;;;;5038981;28;20620;-79
2021/01/13 09:04:50;;;;;;;7.40;4.90;;;9.60;99.90;;;;;;5058597;28;20691;-79
2021/01/13 09:07:19;;;;;;;7.90;5.13;;;9.60;99.90;;;;;;5057296;28;20273;-78
2021/01/13 09:09:58;;;;;;;7.90;4.80;;;9.60;99.90;;;;;;5055374;28;20234;-78
2021/01/13 09:12:33;;;;;;;10.23;5.97;;;9.60;99.90;;;;;;5055322;28;20206;-78
2021/01/13 09:15:19;;;;;;;9.40;5.00;;;9.60;99.90;;;;;;5060239;28;20205;-78
2021/01/13 09:17:51;;;;;;;9.07;4.60;;;9.60;99.90;;;;;;5055530;28;20321;-78
2021/01/13 09:20:23;;;;;;;7.07;4.43;;;9.70;99.90;;;;;;5054559;28;20333;-79
2021/01/13 09:22:53;;;;;;;7.50;4.50;;;9.80;99.90;;;;;;5060033;28;20276;-79
2021/01/13 09:25:21;;;;;;;5.97;4.37;;;9.80;99.90;;;;;;5057105;28;20287;-78
2021/01/13 09:27:50;;;;;;;6.63;3.97;;;9.80;99.90;;;;;;5055145;28;20230;-79
2021/01/13 09:30:36;;;;;;;5.70;3.60;;;9.80;99.90;;;;;;5054973;28;20238;-79
2021/01/13 09:33:07;;;;;;;4.73;3.50;;;9.70;99.90;;;;;;5050236;28;20666;-78
2021/01/13 09:35:35;;;;;;;4.97;3.07;;;9.70;99.90;;;;;;5054000;28;20233;-79
2021/01/13 09:38:05;;;;;;;3.80;3.10;;;9.70;99.90;;;;;;5056158;28;20218;-79
2021/01/13 09:40:56;;;;;;;4.70;3.00;;;9.70;99.90;;;;;;5068579;28;20199;-78
2021/01/13 09:43:29;;;;;;;3.77;2.93;;;9.70;99.90;;;;;;5042934;28;20309;-78
2021/01/13 09:45:57;;;;;;;5.53;2.90;;;9.60;99.90;;;;;;5066451;28;20686;-79
2021/01/13 09:48:25;;;;;;;5.47;2.63;;;9.70;99.90;;;;;;5071709;28;20239;-79
2021/01/13 09:51:04;;;;;;;5.60;2.43;;;9.70;99.90;;;;;;5053815;28;20234;-78
2021/01/13 09:53:33;;;;;;;3.50;2.40;;;9.60;99.90;;;;;;5060564;28;20246;-79
2021/01/13 09:56:06;;;;;;;4.70;2.37;;;9.60;99.90;;;;;;5053978;28;20279;-79
2021/01/13 09:58:41;;;;;;;6.97;2.80;;;9.60;99.90;;;;;;5054336;28;20244;-78
2021/01/13 10:01:13;;;;;;;2.93;2.43;;;9.70;99.90;;;;;;5059033;28;20245;-78
2021/01/13 10:03:41;;;;;;;5.83;3.23;;;9.70;99.90;;;;;;5057931;28;20316;-78
2021/01/13 10:06:15;;;;;;;5.33;3.30;;;9.70;99.90;;;;;;5052503;28;20615;-79
2021/01/13 10:08:43;;;;;;;3.93;2.80;;;9.70;99.90;;;;;;5053302;28;20630;-78
2021/01/13 10:11:10;;;;;;;8.73;3.67;;;9.70;99.90;;;;;;5052694;28;20632;-78
2021/01/13 10:13:38;;;;;;;4.63;3.10;;;9.70;99.90;;;;;;5048332;28;20238;-79
2021/01/13 10:16:06;;;;;;;6.70;3.07;;;9.80;99.90;;;;;;5052975;28;20238;-79
2021/01/13 10:18:33;;;;;;;5.30;3.20;;;9.80;99.90;;;;;;5053454;28;20282;-78
2021/01/13 10:21:01;;;;;;;5.73;3.00;;;9.90;99.90;;;;;;5065454;28;20293;-79
2021/01/13 10:23:29;;;;;;;4.50;2.90;;;9.90;99.90;;;;;;5055049;28;20314;-79
2021/01/13 10:26:05;;;;;;;4.37;2.90;;;9.90;99.90;;;;;;5052449;28;20289;-78
2021/01/13 10:28:31;;;;;;;5.70;3.40;;;10.00;99.90;;;;;;5053324;28;20241;-79
2021/01/13 10:30:59;;;;;;;5.40;3.00;;;10.10;99.90;;;;;;5053466;28;20631;-79
2021/01/13 10:33:47;;;;;;;5.07;3.30;;;10.20;99.90;;;;;;5055302;28;20231;-79
2021/01/13 10:36:42;;;;;;;2.93;2.47;;;10.30;99.90;;;;;;5059120;28;20233;-79
2021/01/13 10:39:12;;;;;;;5.33;2.63;;;10.40;99.90;;;;;;5057477;28;20207;-79
2021/01/13 10:41:41;;;;;;;6.27;2.50;;;10.40;99.90;;;;;;5053705;28;20293;-78
2021/01/13 10:44:11;;;;;;;3.33;2.33;;;10.40;99.90;;;;;;5052740;28;20767;-78
2021/01/13 10:46:42;;;;;;;4.53;2.33;;;10.30;99.90;;;;;;5053511;28;20235;-78
2021/01/13 10:49:18;;;;;;;3.90;2.20;;;10.30;99.90;;;;;;5053075;28;20206;-79
2021/01/13 10:51:47;;;;;;;5.03;1.97;;;10.40;99.90;;;;;;5052917;28;20231;-78
2021/01/13 10:54:17;;;;;;;6.13;2.10;;;10.40;99.90;;;;;;5052950;28;20237;-79
2021/01/13 10:56:46;;;;;;;3.03;1.97;;;10.50;99.90;;;;;;5052926;28;20233;-78
2021/01/13 10:59:16;;;;;;;3.83;2.17;;;10.40;99.90;;;;;;5053201;28;20227;-79
2021/01/13 11:01:47;;;;;;;4.33;1.90;;;10.30;99.90;;;;;;5052603;28;20215;-79
2021/01/13 11:04:34;;;;;;;4.33;2.00;;;10.30;99.90;;;;;;5057121;28;20254;-78
2021/01/13 11:07:03;;;;;;;3.93;2.60;;;10.20;99.90;;;;;;5055689;28;20203;-78
2021/01/13 11:09:31;;;;;;;3.57;1.60;;;10.10;99.90;;;;;;5063429;28;20204;-79
2021/01/13 11:11:59;;;;;;;3.53;1.80;;;10.10;99.90;;;;;;5052887;28;20207;-79
2021/01/13 11:14:36;;;;;;;4.20;1.90;;;10.10;99.90;;;;;;5052773;28;20725;-79
2021/01/13 11:17:11;;;;;;;4.27;1.80;;;10.20;99.90;;;;;;5059043;28;20227;-79
2021/01/13 11:19:39;;;;;;;4.43;2.00;;;10.20;99.90;;;;;;5052024;28;20254;-78
2021/01/13 11:22:06;;;;;;;3.43;1.70;;;10.20;99.90;;;;;;5052782;28;20240;-77
2021/01/13 11:24:35;;;;;;;3.57;1.80;;;10.30;99.90;;;;;;5052346;28;20734;-79
2021/01/13 11:27:06;;;;;;;2.97;1.80;;;10.30;99.90;;;;;;5052065;28;20238;-78
2021/01/13 11:29:35;;;;;;;3.57;1.60;;;10.50;99.90;;;;;;5052549;28;20232;-79
2021/01/13 11:32:03;;;;;;;3.37;1.27;;;10.60;99.90;;;;;;5053171;28;20238;-78
2021/01/13 11:34:30;;;;;;;4.53;1.67;;;10.60;99.90;;;;;;5052200;28;20254;-78
2021/01/13 11:37:48;;;;;;;3.07;1.60;;;10.60;99.90;;;;;;5052114;28;20677;-78
2021/01/13 11:40:35;;;;;;;3.77;1.80;;;10.60;99.90;;;;;;5053736;28;20195;-78
2021/01/13 11:43:37;;;;;;;3.80;1.67;;;10.80;99.90;;;;;;5057164;28;20251;-79
2021/01/13 11:46:10;;;;;;;3.20;1.60;;;11.00;99.90;;;;;;5035752;28;20230;-78
2021/01/13 11:49:15;;;;;;;3.70;1.50;;;11.00;99.90;;;;;;5052436;28;20246;-78
2021/01/13 11:51:45;;;;;;;4.73;2.00;;;10.90;99.90;;;;;;5040261;28;20239;-78
2021/01/13 11:54:22;;;;;;;2.60;1.70;;;10.70;99.90;;;;;;5051859;28;20227;-78
2021/01/13 11:56:48;;;;;;;4.67;1.90;;;10.60;99.90;;;;;;5050803;28;20264;-78
2021/01/13 11:59:24;;;;;;;5.80;2.00;;;10.60;99.90;;;;;;5051567;28;20231;-79
2021/01/13 12:01:53;;;;;;;5.13;2.20;;;10.70;99.90;;;;;;5052047;28;20278;-78
2021/01/13 12:04:19;;;;;;;4.30;1.80;;;10.70;99.90;;;;;;5044245;28;20652;-78
2021/01/13 12:06:56;;;;;;;4.10;1.67;;;10.70;99.90;;;;;;5052021;28;20732;-78
2021/01/13 12:09:22;;;;;;;4.00;1.70;;;10.70;99.90;;;;;;5061527;28;20230;-79
2021/01/13 12:11:49;;;;;;;3.23;1.63;;;10.60;99.90;;;;;;5051251;28;20724;-78
2021/01/13 12:14:16;;;;;;;5.07;1.93;;;10.60;99.90;;;;;;5059387;28;20230;-79
2021/01/13 12:16:42;;;;;;;4.63;2.27;;;10.60;99.90;;;;;;5051658;28;20246;-79
2021/01/13 12:19:09;;;;;;;5.33;2.13;;;10.80;99.90;;;;;;5050304;28;20284;-78
2021/01/13 12:21:36;;;;;;;4.60;2.07;;;11.30;99.90;;;;;;5051422;28;20316;-78
2021/01/13 12:24:23;;;;;;;5.03;2.30;;;11.50;99.90;;;;;;5059883;28;20263;-79
2021/01/13 12:26:51;;;;;;;2.33;1.50;;;11.80;99.90;;;;;;5046964;28;20206;-78
2021/01/13 12:29:21;;;;;;;2.53;1.70;;;12.10;99.90;;;;;;5052305;28;20196;-79
2021/01/13 12:31:49;;;;;;;3.07;1.63;;;12.00;99.90;;;;;;5051789;28;20204;-79
2021/01/13 12:34:19;;;;;;;2.83;1.40;;;12.10;99.90;;;;;;5051569;28;20222;-78
2021/01/13 12:36:47;;;;;;;5.00;1.63;;;12.20;99.90;;;;;;5052160;28;20702;-78
2021/01/13 12:39:23;;;;;;;4.83;1.60;;;12.70;99.90;;;;;;5055179;28;20639;-79
2021/01/13 12:41:51;;;;;;;4.07;1.43;;;12.70;99.90;;;;;;5068094;28;20281;-79
2021/01/13 12:44:19;;;;;;;4.10;2.00;;;12.50;99.90;;;;;;5055837;28;20306;-79
2021/01/13 12:46:50;;;;;;;2.83;1.40;;;12.50;99.90;;;;;;5075052;28;20244;-78
2021/01/13 12:49:17;;;;;;;4.63;2.20;;;12.50;99.90;;;;;;5067223;28;20286;-79
2021/01/13 12:51:49;;;;;;;5.07;2.00;;;12.10;99.90;;;;;;5062786;28;20235;-79
2021/01/13 12:54:15;;;;;;;3.17;1.70;;;11.80;99.90;;;;;;5058005;28;21682;-79
2021/01/13 12:56:42;;;;;;;5.13;2.40;;;11.60;99.90;;;;;;5056314;28;20631;-79
2021/01/13 12:59:08;;;;;;;4.57;2.10;;;11.40;99.90;;;;;;5069928;28;20258;-79
2021/01/13 13:01:39;;;;;;;3.77;1.90;;;11.20;99.90;;;;;;5054751;28;20275;-79
2021/01/13 13:04:05;;;;;;;5.33;2.10;;;11.00;99.90;;;;;;5062481;28;20250;-78
2021/01/13 13:06:34;;;;;;;5.07;1.90;;;10.90;99.90;;;;;;5059632;28;20207;-78
2021/01/13 13:09:02;;;;;;;6.47;1.87;;;10.80;99.90;;;;;;5055702;28;20269;-78
2021/01/13 13:11:29;;;;;;;3.47;1.67;;;10.80;99.90;;;;;;5055138;28;20231;-78
2021/01/13 13:13:56;;;;;;;4.53;2.30;;;10.70;99.90;;;;;;5060271;28;20211;-78
2021/01/13 13:16:23;;;;;;;3.53;1.77;;;10.80;99.90;;;;;;5057217;28;20687;-78
2021/01/13 13:18:52;;;;;;;4.23;1.77;;;10.70;99.90;;;;;;5054267;28;20636;-79
2021/01/13 13:21:19;;;;;;;3.47;1.90;;;10.80;99.90;;;;;;5054384;28;20227;-79
2021/01/13 13:23:47;;;;;;;4.80;2.10;;;10.80;99.90;;;;;;5054408;28;20247;-78
2021/01/13 13:26:14;;;;;;;4.43;2.33;;;11.00;99.90;;;;;;5055248;28;20234;-78